sensor_id;sensor_type;location;lat;lon;timestamp;P1;durP1;ratioP1;P2;durP2;ratioP2
1350;SDS011;669;50.206;9.998;2023-07-13T00:01:18;4.80;;;1.73;;
1350;SDS011;669;50.206;9.998;2023-07-13T00:03:47;2.07;;;1.87;;
1350;SDS011;669;50.206;9.998;2023-07-13T00:06:16;1.70;;;1.60;;
1350;SDS011;669;50.206;9.998;2023-07-13T00:08:46;3.70;;;1.60;;
1350;SDS011;669;50.206;9.998;2023-07-13T00:11:15;1.60;;;1.40;;
1350;SDS011;669;50.206;9.998;2023-07-13T00:13:44;1.43;;;1.33;;
1350;SDS011;669;50.206;9.998;2023-07-13T00:16:12;1.83;;;1.73;;
1350;SDS011;669;50.206;9.998;2023-07-13T00:18:41;1.63;;;1.53;;
1350;SDS011;669;50.206;9.998;2023-07-13T00:21:08;1.83;;;1.73;;
1350;SDS011;669;50.206;9.998;2023-07-13T00:23:38;1.23;;;1.20;;
1350;SDS011;669;50.206;9.998;2023-07-13T00:26:09;2.10;;;1.90;;
1350;SDS011;669;50.206;9.998;2023-07-13T00:28:39;1.37;;;1.37;;
1350;SDS011;669;50.206;9.998;2023-07-13T00:31:08;1.80;;;1.70;;
1350;SDS011;669;50.206;9.998;2023-07-13T00:33:37;1.70;;;1.60;;
1350;SDS011;669;50.206;9.998;2023-07-13T00:36:09;1.87;;;1.70;;
1350;SDS011;669;50.206;9.998;2023-07-13T00:38:39;1.93;;;1.73;;
1350;SDS011;669;50.206;9.998;2023-07-13T00:41:07;1.60;;;1.50;;
1350;SDS011;669;50.206;9.998;2023-07-13T00:43:35;1.80;;;1.70;;
1350;SDS011;669;50.206;9.998;2023-07-13T00:46:22;1.70;;;1.60;;
1350;SDS011;669;50.206;9.998;2023-07-13T00:48:53;1.87;;;1.77;;
1350;SDS011;669;50.206;9.998;2023-07-13T00:51:25;1.60;;;1.50;;
1350;SDS011;669;50.206;9.998;2023-07-13T00:54:00;1.27;;;1.23;;
1350;SDS011;669;50.206;9.998;2023-07-13T00:56:31;1.43;;;1.40;;
1350;SDS011;669;50.206;9.998;2023-07-13T00:59:01;1.70;;;1.60;;
1350;SDS011;669;50.206;9.998;2023-07-13T01:01:33;1.30;;;1.20;;
1350;SDS011;669;50.206;9.998;2023-07-13T01:04:03;1.60;;;1.50;;
1350;SDS011;669;50.206;9.998;2023-07-13T01:06:34;1.20;;;1.20;;
1350;SDS011;669;50.206;9.998;2023-07-13T01:09:04;1.70;;;1.60;;
1350;SDS011;669;50.206;9.998;2023-07-13T01:11:33;1.70;;;1.60;;
1350;SDS011;669;50.206;9.998;2023-07-13T01:14:02;1.90;;;1.80;;
1350;SDS011;669;50.206;9.998;2023-07-13T01:16:31;1.27;;;1.27;;
1350;SDS011;669;50.206;9.998;2023-07-13T01:19:00;1.87;;;1.77;;
1350;SDS011;669;50.206;9.998;2023-07-13T01:21:32;2.10;;;2.00;;
1350;SDS011;669;50.206;9.998;2023-07-13T01:24:00;1.80;;;1.70;;
1350;SDS011;669;50.206;9.998;2023-07-13T01:26:29;1.90;;;1.70;;
1350;SDS011;669;50.206;9.998;2023-07-13T01:28:56;2.60;;;2.03;;
1350;SDS011;669;50.206;9.998;2023-07-13T01:31:24;2.50;;;1.90;;
1350;SDS011;669;50.206;9.998;2023-07-13T01:33:53;1.90;;;1.80;;
1350;SDS011;669;50.206;9.998;2023-07-13T01:36:21;1.80;;;1.70;;
1350;SDS011;669;50.206;9.998;2023-07-13T01:38:50;1.60;;;1.50;;
1350;SDS011;669;50.206;9.998;2023-07-13T01:41:18;1.57;;;1.47;;
1350;SDS011;669;50.206;9.998;2023-07-13T01:43:46;2.10;;;1.90;;
1350;SDS011;669;50.206;9.998;2023-07-13T01:46:14;1.70;;;1.60;;
1350;SDS011;669;50.206;9.998;2023-07-13T01:48:49;1.40;;;1.40;;
1350;SDS011;669;50.206;9.998;2023-07-13T01:51:17;1.40;;;1.30;;
1350;SDS011;669;50.206;9.998;2023-07-13T01:53:46;1.60;;;1.50;;
1350;SDS011;669;50.206;9.998;2023-07-13T01:56:17;1.60;;;1.50;;
1350;SDS011;669;50.206;9.998;2023-07-13T01:58:44;1.33;;;1.23;;
1350;SDS011;669;50.206;9.998;2023-07-13T02:01:13;2.00;;;1.80;;
1350;SDS011;669;50.206;9.998;2023-07-13T02:03:41;1.40;;;1.30;;
1350;SDS011;669;50.206;9.998;2023-07-13T02:06:09;1.80;;;1.70;;
1350;SDS011;669;50.206;9.998;2023-07-13T02:08:37;2.27;;;1.80;;
1350;SDS011;669;50.206;9.998;2023-07-13T02:11:05;2.70;;;1.90;;
1350;SDS011;669;50.206;9.998;2023-07-13T02:13:35;1.77;;;1.67;;
1350;SDS011;669;50.206;9.998;2023-07-13T02:16:03;2.60;;;1.50;;
1350;SDS011;669;50.206;9.998;2023-07-13T02:18:31;1.43;;;1.43;;
1350;SDS011;669;50.206;9.998;2023-07-13T02:20:59;2.50;;;1.70;;
1350;SDS011;669;50.206;9.998;2023-07-13T02:23:27;2.00;;;1.80;;
1350;SDS011;669;50.206;9.998;2023-07-13T02:25:55;1.83;;;1.73;;
1350;SDS011;669;50.206;9.998;2023-07-13T02:28:23;1.43;;;1.33;;
1350;SDS011;669;50.206;9.998;2023-07-13T02:30:52;1.87;;;1.77;;
1350;SDS011;669;50.206;9.998;2023-07-13T02:33:20;2.67;;;1.90;;
1350;SDS011;669;50.206;9.998;2023-07-13T02:35:49;1.53;;;1.50;;
1350;SDS011;669;50.206;9.998;2023-07-13T02:38:18;3.10;;;1.73;;
1350;SDS011;669;50.206;9.998;2023-07-13T02:40:46;1.30;;;1.20;;
1350;SDS011;669;50.206;9.998;2023-07-13T02:43:14;1.90;;;1.67;;
1350;SDS011;669;50.206;9.998;2023-07-13T02:45:43;2.53;;;1.93;;
1350;SDS011;669;50.206;9.998;2023-07-13T02:48:13;1.47;;;1.37;;
1350;SDS011;669;50.206;9.998;2023-07-13T02:50:41;1.80;;;1.70;;
1350;SDS011;669;50.206;9.998;2023-07-13T02:53:09;3.50;;;1.87;;
1350;SDS011;669;50.206;9.998;2023-07-13T02:55:37;3.10;;;2.30;;
1350;SDS011;669;50.206;9.998;2023-07-13T02:58:07;2.50;;;2.17;;
1350;SDS011;669;50.206;9.998;2023-07-13T03:00:37;2.60;;;1.93;;
1350;SDS011;669;50.206;9.998;2023-07-13T03:03:07;2.10;;;1.90;;
1350;SDS011;669;50.206;9.998;2023-07-13T03:05:36;2.17;;;2.07;;
1350;SDS011;669;50.206;9.998;2023-07-13T03:08:04;1.17;;;1.17;;
1350;SDS011;669;50.206;9.998;2023-07-13T03:10:33;1.87;;;1.77;;
1350;SDS011;669;50.206;9.998;2023-07-13T03:13:01;1.90;;;1.80;;
1350;SDS011;669;50.206;9.998;2023-07-13T03:15:29;1.90;;;1.80;;
1350;SDS011;669;50.206;9.998;2023-07-13T03:17:57;1.83;;;1.57;;
1350;SDS011;669;50.206;9.998;2023-07-13T03:20:25;2.13;;;2.03;;
1350;SDS011;669;50.206;9.998;2023-07-13T03:22:54;1.40;;;1.40;;
1350;SDS011;669;50.206;9.998;2023-07-13T03:25:22;1.80;;;1.70;;
1350;SDS011;669;50.206;9.998;2023-07-13T03:27:50;1.63;;;1.53;;
1350;SDS011;669;50.206;9.998;2023-07-13T03:30:18;1.60;;;1.50;;
1350;SDS011;669;50.206;9.998;2023-07-13T03:32:46;1.33;;;1.30;;
1350;SDS011;669;50.206;9.998;2023-07-13T03:35:14;1.43;;;1.33;;
1350;SDS011;669;50.206;9.998;2023-07-13T03:37:42;1.53;;;1.43;;
1350;SDS011;669;50.206;9.998;2023-07-13T03:40:12;1.43;;;1.33;;
1350;SDS011;669;50.206;9.998;2023-07-13T03:42:40;1.87;;;1.77;;
1350;SDS011;669;50.206;9.998;2023-07-13T03:45:08;1.57;;;1.47;;
1350;SDS011;669;50.206;9.998;2023-07-13T03:47:36;1.87;;;1.70;;
1350;SDS011;669;50.206;9.998;2023-07-13T03:50:05;1.93;;;1.83;;
1350;SDS011;669;50.206;9.998;2023-07-13T03:52:33;1.57;;;1.47;;
1350;SDS011;669;50.206;9.998;2023-07-13T03:55:01;1.87;;;1.77;;
1350;SDS011;669;50.206;9.998;2023-07-13T03:57:31;1.77;;;1.63;;
1350;SDS011;669;50.206;9.998;2023-07-13T04:00:00;1.90;;;1.80;;
1350;SDS011;669;50.206;9.998;2023-07-13T04:02:28;2.07;;;1.90;;
1350;SDS011;669;50.206;9.998;2023-07-13T04:04:56;1.83;;;1.73;;
1350;SDS011;669;50.206;9.998;2023-07-13T04:07:24;1.50;;;1.40;;
1350;SDS011;669;50.206;9.998;2023-07-13T04:09:52;1.63;;;1.53;;
1350;SDS011;669;50.206;9.998;2023-07-13T04:12:20;2.10;;;2.00;;
1350;SDS011;669;50.206;9.998;2023-07-13T04:14:50;2.03;;;1.70;;
1350;SDS011;669;50.206;9.998;2023-07-13T04:17:18;2.33;;;1.40;;
1350;SDS011;669;50.206;9.998;2023-07-13T04:19:46;2.13;;;2.03;;
1350;SDS011;669;50.206;9.998;2023-07-13T04:22:15;2.27;;;1.90;;
1350;SDS011;669;50.206;9.998;2023-07-13T04:24:43;2.10;;;1.63;;
1350;SDS011;669;50.206;9.998;2023-07-13T04:27:11;2.50;;;1.70;;
1350;SDS011;669;50.206;9.998;2023-07-13T04:29:39;3.50;;;1.77;;
1350;SDS011;669;50.206;9.998;2023-07-13T04:32:08;1.70;;;1.60;;
1350;SDS011;669;50.206;9.998;2023-07-13T04:34:36;2.30;;;1.37;;
1350;SDS011;669;50.206;9.998;2023-07-13T04:37:04;2.40;;;1.83;;
1350;SDS011;669;50.206;9.998;2023-07-13T04:39:33;3.50;;;1.90;;
1350;SDS011;669;50.206;9.998;2023-07-13T04:42:01;3.27;;;1.70;;
1350;SDS011;669;50.206;9.998;2023-07-13T04:44:30;1.47;;;1.40;;
1350;SDS011;669;50.206;9.998;2023-07-13T04:46:57;2.93;;;1.93;;
1350;SDS011;669;50.206;9.998;2023-07-13T04:49:27;3.60;;;1.50;;
1350;SDS011;669;50.206;9.998;2023-07-13T04:51:55;2.23;;;1.70;;
1350;SDS011;669;50.206;9.998;2023-07-13T04:54:23;2.20;;;1.50;;
1350;SDS011;669;50.206;9.998;2023-07-13T04:56:51;1.50;;;1.40;;
1350;SDS011;669;50.206;9.998;2023-07-13T04:59:19;1.53;;;1.43;;
1350;SDS011;669;50.206;9.998;2023-07-13T05:01:46;1.87;;;1.67;;
1350;SDS011;669;50.206;9.998;2023-07-13T05:04:14;1.70;;;1.60;;
1350;SDS011;669;50.206;9.998;2023-07-13T05:06:44;2.20;;;1.43;;
1350;SDS011;669;50.206;9.998;2023-07-13T05:09:12;2.00;;;1.20;;
1350;SDS011;669;50.206;9.998;2023-07-13T05:11:40;2.53;;;1.20;;
1350;SDS011;669;50.206;9.998;2023-07-13T05:14:08;3.17;;;1.50;;
1350;SDS011;669;50.206;9.998;2023-07-13T05:16:36;1.73;;;1.20;;
1350;SDS011;669;50.206;9.998;2023-07-13T05:19:04;1.87;;;1.13;;
1350;SDS011;669;50.206;9.998;2023-07-13T05:21:32;2.20;;;1.30;;
1350;SDS011;669;50.206;9.998;2023-07-13T05:24:02;1.43;;;0.83;;
1350;SDS011;669;50.206;9.998;2023-07-13T05:26:49;1.97;;;1.40;;
1350;SDS011;669;50.206;9.998;2023-07-13T05:29:17;1.40;;;1.30;;
1350;SDS011;669;50.206;9.998;2023-07-13T05:31:46;2.00;;;1.47;;
1350;SDS011;669;50.206;9.998;2023-07-13T05:34:14;1.40;;;1.30;;
1350;SDS011;669;50.206;9.998;2023-07-13T05:36:42;0.87;;;0.80;;
1350;SDS011;669;50.206;9.998;2023-07-13T05:39:12;2.13;;;1.30;;
1350;SDS011;669;50.206;9.998;2023-07-13T05:41:40;2.67;;;1.23;;
1350;SDS011;669;50.206;9.998;2023-07-13T05:44:08;2.83;;;1.43;;
1350;SDS011;669;50.206;9.998;2023-07-13T05:46:36;2.40;;;1.03;;
1350;SDS011;669;50.206;9.998;2023-07-13T05:49:04;0.70;;;0.70;;
1350;SDS011;669;50.206;9.998;2023-07-13T05:51:32;1.30;;;1.20;;
1350;SDS011;669;50.206;9.998;2023-07-13T05:54:00;1.70;;;1.00;;
1350;SDS011;669;50.206;9.998;2023-07-13T05:56:29;2.40;;;0.83;;
1350;SDS011;669;50.206;9.998;2023-07-13T05:58:57;1.10;;;1.00;;
1350;SDS011;669;50.206;9.998;2023-07-13T06:01:25;1.03;;;0.80;;
1350;SDS011;669;50.206;9.998;2023-07-13T06:03:54;2.03;;;1.03;;
1350;SDS011;669;50.206;9.998;2023-07-13T06:06:22;2.33;;;1.17;;
1350;SDS011;669;50.206;9.998;2023-07-13T06:08:49;3.70;;;1.37;;
1350;SDS011;669;50.206;9.998;2023-07-13T06:11:18;5.43;;;1.53;;
1350;SDS011;669;50.206;9.998;2023-07-13T06:13:49;1.50;;;1.40;;
1350;SDS011;669;50.206;9.998;2023-07-13T06:16:17;2.70;;;1.20;;
1350;SDS011;669;50.206;9.998;2023-07-13T06:18:46;2.00;;;1.30;;
1350;SDS011;669;50.206;9.998;2023-07-13T06:21:14;3.70;;;1.70;;
1350;SDS011;669;50.206;9.998;2023-07-13T06:23:44;1.20;;;1.10;;
1350;SDS011;669;50.206;9.998;2023-07-13T06:26:14;2.57;;;1.10;;
1350;SDS011;669;50.206;9.998;2023-07-13T06:28:42;1.70;;;0.87;;
1350;SDS011;669;50.206;9.998;2023-07-13T06:31:12;2.53;;;0.90;;
1350;SDS011;669;50.206;9.998;2023-07-13T06:33:41;1.27;;;0.90;;
1350;SDS011;669;50.206;9.998;2023-07-13T06:36:10;2.10;;;0.80;;
1350;SDS011;669;50.206;9.998;2023-07-13T06:38:38;2.73;;;1.00;;
1350;SDS011;669;50.206;9.998;2023-07-13T06:41:06;1.43;;;1.00;;
1350;SDS011;669;50.206;9.998;2023-07-13T06:43:35;2.40;;;0.93;;
1350;SDS011;669;50.206;9.998;2023-07-13T06:46:03;1.87;;;1.00;;
1350;SDS011;669;50.206;9.998;2023-07-13T06:48:33;4.30;;;1.37;;
1350;SDS011;669;50.206;9.998;2023-07-13T06:51:01;1.27;;;1.00;;
1350;SDS011;669;50.206;9.998;2023-07-13T06:53:29;1.80;;;0.97;;
1350;SDS011;669;50.206;9.998;2023-07-13T06:55:57;2.60;;;0.90;;
1350;SDS011;669;50.206;9.998;2023-07-13T06:58:25;2.77;;;1.10;;
1350;SDS011;669;50.206;9.998;2023-07-13T07:00:53;1.60;;;0.97;;
1350;SDS011;669;50.206;9.998;2023-07-13T07:03:21;2.00;;;0.80;;
1350;SDS011;669;50.206;9.998;2023-07-13T07:05:51;2.33;;;1.00;;
1350;SDS011;669;50.206;9.998;2023-07-13T07:08:19;1.00;;;0.87;;
1350;SDS011;669;50.206;9.998;2023-07-13T07:10:47;2.70;;;0.90;;
1350;SDS011;669;50.206;9.998;2023-07-13T07:13:20;0.87;;;0.87;;
1350;SDS011;669;50.206;9.998;2023-07-13T07:15:49;2.27;;;1.50;;
1350;SDS011;669;50.206;9.998;2023-07-13T07:18:17;2.47;;;0.77;;
1350;SDS011;669;50.206;9.998;2023-07-13T07:20:45;2.10;;;0.47;;
1350;SDS011;669;50.206;9.998;2023-07-13T07:23:14;1.77;;;0.83;;
1350;SDS011;669;50.206;9.998;2023-07-13T07:25:43;0.60;;;0.60;;
1350;SDS011;669;50.206;9.998;2023-07-13T07:28:11;2.63;;;0.97;;
1350;SDS011;669;50.206;9.998;2023-07-13T07:30:47;0.70;;;0.70;;
1350;SDS011;669;50.206;9.998;2023-07-13T07:33:19;2.87;;;0.70;;
1350;SDS011;669;50.206;9.998;2023-07-13T07:35:47;0.70;;;0.57;;
1350;SDS011;669;50.206;9.998;2023-07-13T07:38:19;1.10;;;0.60;;
1350;SDS011;669;50.206;9.998;2023-07-13T07:40:50;3.60;;;0.70;;
1350;SDS011;669;50.206;9.998;2023-07-13T07:43:21;0.60;;;0.60;;
1350;SDS011;669;50.206;9.998;2023-07-13T07:45:49;0.67;;;0.67;;
1350;SDS011;669;50.206;9.998;2023-07-13T07:48:17;1.70;;;0.77;;
1350;SDS011;669;50.206;9.998;2023-07-13T07:50:45;1.13;;;0.50;;
1350;SDS011;669;50.206;9.998;2023-07-13T07:53:13;1.73;;;0.90;;
1350;SDS011;669;50.206;9.998;2023-07-13T07:55:42;1.67;;;0.90;;
1350;SDS011;669;50.206;9.998;2023-07-13T07:58:14;1.67;;;0.80;;
1350;SDS011;669;50.206;9.998;2023-07-13T08:01:03;1.53;;;0.83;;
1350;SDS011;669;50.206;9.998;2023-07-13T08:03:35;4.00;;;0.97;;
1350;SDS011;669;50.206;9.998;2023-07-13T08:06:05;3.03;;;0.90;;
1350;SDS011;669;50.206;9.998;2023-07-13T08:08:36;2.20;;;0.97;;
1350;SDS011;669;50.206;9.998;2023-07-13T08:11:06;1.10;;;0.77;;
1350;SDS011;669;50.206;9.998;2023-07-13T08:13:38;0.80;;;0.70;;
1350;SDS011;669;50.206;9.998;2023-07-13T08:16:06;1.63;;;1.00;;
1350;SDS011;669;50.206;9.998;2023-07-13T08:18:35;1.63;;;1.17;;
1350;SDS011;669;50.206;9.998;2023-07-13T08:21:03;0.60;;;0.60;;
1350;SDS011;669;50.206;9.998;2023-07-13T08:23:31;1.93;;;0.77;;
1350;SDS011;669;50.206;9.998;2023-07-13T08:26:00;7.13;;;0.73;;
1350;SDS011;669;50.206;9.998;2023-07-13T08:28:30;2.97;;;1.33;;
1350;SDS011;669;50.206;9.998;2023-07-13T08:31:02;1.30;;;1.20;;
1350;SDS011;669;50.206;9.998;2023-07-13T08:33:31;2.17;;;1.07;;
1350;SDS011;669;50.206;9.998;2023-07-13T08:35:59;2.00;;;1.10;;
1350;SDS011;669;50.206;9.998;2023-07-13T08:38:27;1.10;;;0.90;;
1350;SDS011;669;50.206;9.998;2023-07-13T08:40:55;0.77;;;0.70;;
1350;SDS011;669;50.206;9.998;2023-07-13T08:43:25;0.73;;;0.73;;
1350;SDS011;669;50.206;9.998;2023-07-13T08:45:56;1.23;;;0.80;;
1350;SDS011;669;50.206;9.998;2023-07-13T08:48:28;5.73;;;1.13;;
1350;SDS011;669;50.206;9.998;2023-07-13T08:51:00;2.07;;;0.77;;
1350;SDS011;669;50.206;9.998;2023-07-13T08:53:35;2.30;;;0.97;;
1350;SDS011;669;50.206;9.998;2023-07-13T08:56:08;3.00;;;1.00;;
1350;SDS011;669;50.206;9.998;2023-07-13T08:58:43;1.77;;;1.03;;
1350;SDS011;669;50.206;9.998;2023-07-13T09:01:15;1.10;;;1.00;;
1350;SDS011;669;50.206;9.998;2023-07-13T09:03:51;0.60;;;0.60;;
1350;SDS011;669;50.206;9.998;2023-07-13T09:06:27;0.77;;;0.77;;
1350;SDS011;669;50.206;9.998;2023-07-13T09:09:01;0.77;;;0.60;;
1350;SDS011;669;50.206;9.998;2023-07-13T09:11:36;0.93;;;0.70;;
1350;SDS011;669;50.206;9.998;2023-07-13T09:14:20;1.07;;;0.70;;
1350;SDS011;669;50.206;9.998;2023-07-13T09:17:03;1.00;;;0.60;;
1350;SDS011;669;50.206;9.998;2023-07-13T09:19:35;1.00;;;0.80;;
1350;SDS011;669;50.206;9.998;2023-07-13T09:22:04;0.70;;;0.70;;
1350;SDS011;669;50.206;9.998;2023-07-13T09:24:37;0.53;;;0.53;;
1350;SDS011;669;50.206;9.998;2023-07-13T09:27:10;0.70;;;0.50;;
1350;SDS011;669;50.206;9.998;2023-07-13T09:29:45;1.60;;;0.60;;
1350;SDS011;669;50.206;9.998;2023-07-13T09:32:19;3.13;;;0.70;;
1350;SDS011;669;50.206;9.998;2023-07-13T09:34:51;0.70;;;0.70;;
1350;SDS011;669;50.206;9.998;2023-07-13T09:37:20;4.03;;;1.20;;
1350;SDS011;669;50.206;9.998;2023-07-13T09:39:51;0.80;;;0.80;;
1350;SDS011;669;50.206;9.998;2023-07-13T09:42:22;1.70;;;1.00;;
1350;SDS011;669;50.206;9.998;2023-07-13T09:44:51;2.50;;;1.07;;
1350;SDS011;669;50.206;9.998;2023-07-13T09:47:23;0.80;;;0.80;;
1350;SDS011;669;50.206;9.998;2023-07-13T09:49:54;1.37;;;1.00;;
1350;SDS011;669;50.206;9.998;2023-07-13T09:52:38;2.67;;;0.80;;
1350;SDS011;669;50.206;9.998;2023-07-13T09:55:22;1.27;;;0.90;;
1350;SDS011;669;50.206;9.998;2023-07-13T09:57:52;5.43;;;0.80;;
1350;SDS011;669;50.206;9.998;2023-07-13T10:00:22;1.20;;;1.10;;
1350;SDS011;669;50.206;9.998;2023-07-13T10:03:03;1.13;;;1.08;;
1350;SDS011;669;50.206;9.998;2023-07-13T10:05:40;1.60;;;1.10;;
1350;SDS011;669;50.206;9.998;2023-07-13T10:08:20;0.90;;;0.80;;
1350;SDS011;669;50.206;9.998;2023-07-13T10:10:57;2.10;;;0.93;;
1350;SDS011;669;50.206;9.998;2023-07-13T10:13:31;2.23;;;0.73;;
1350;SDS011;669;50.206;9.998;2023-07-13T10:16:04;1.83;;;0.70;;
1350;SDS011;669;50.206;9.998;2023-07-13T10:18:37;1.73;;;0.80;;
1350;SDS011;669;50.206;9.998;2023-07-13T10:21:11;1.27;;;0.93;;
1350;SDS011;669;50.206;9.998;2023-07-13T10:23:45;2.00;;;1.47;;
1350;SDS011;669;50.206;9.998;2023-07-13T10:26:19;1.03;;;0.90;;
1350;SDS011;669;50.206;9.998;2023-07-13T10:28:51;0.93;;;0.63;;
1350;SDS011;669;50.206;9.998;2023-07-13T10:31:21;2.17;;;1.17;;
1350;SDS011;669;50.206;9.998;2023-07-13T10:33:52;2.60;;;1.00;;
1350;SDS011;669;50.206;9.998;2023-07-13T10:36:24;1.77;;;0.83;;
1350;SDS011;669;50.206;9.998;2023-07-13T10:39:01;3.17;;;1.20;;
1350;SDS011;669;50.206;9.998;2023-07-13T10:41:32;1.93;;;0.90;;
1350;SDS011;669;50.206;9.998;2023-07-13T10:44:05;2.70;;;1.00;;
1350;SDS011;669;50.206;9.998;2023-07-13T10:46:42;1.47;;;1.13;;
1350;SDS011;669;50.206;9.998;2023-07-13T10:49:12;2.40;;;1.13;;
1350;SDS011;669;50.206;9.998;2023-07-13T10:51:41;1.40;;;1.13;;
1350;SDS011;669;50.206;9.998;2023-07-13T10:54:19;2.40;;;0.90;;
1350;SDS011;669;50.206;9.998;2023-07-13T10:56:50;0.87;;;0.83;;
1350;SDS011;669;50.206;9.998;2023-07-13T10:59:23;1.80;;;0.97;;
1350;SDS011;669;50.206;9.998;2023-07-13T11:01:55;3.67;;;1.03;;
1350;SDS011;669;50.206;9.998;2023-07-13T11:04:27;1.60;;;1.23;;
1350;SDS011;669;50.206;9.998;2023-07-13T11:07:10;2.23;;;1.13;;
1350;SDS011;669;50.206;9.998;2023-07-13T11:09:46;2.23;;;1.70;;
1350;SDS011;669;50.206;9.998;2023-07-13T11:12:28;1.73;;;1.17;;
1350;SDS011;669;50.206;9.998;2023-07-13T11:15:11;2.23;;;1.40;;
1350;SDS011;669;50.206;9.998;2023-07-13T11:17:48;1.13;;;0.90;;
1350;SDS011;669;50.206;9.998;2023-07-13T11:23:28;0.90;;;0.90;;
1350;SDS011;669;50.206;9.998;2023-07-13T11:25:58;1.37;;;0.90;;
1350;SDS011;669;50.206;9.998;2023-07-13T11:28:30;1.07;;;0.90;;
1350;SDS011;669;50.206;9.998;2023-07-13T11:31:01;4.53;;;0.90;;
1350;SDS011;669;50.206;9.998;2023-07-13T11:33:48;2.37;;;1.07;;
1350;SDS011;669;50.206;9.998;2023-07-13T11:36:24;1.57;;;0.80;;
1350;SDS011;669;50.206;9.998;2023-07-13T11:39:00;1.10;;;1.00;;
1350;SDS011;669;50.206;9.998;2023-07-13T11:41:32;1.10;;;1.00;;
1350;SDS011;669;50.206;9.998;2023-07-13T11:44:14;0.90;;;0.90;;
1350;SDS011;669;50.206;9.998;2023-07-13T11:46:44;1.57;;;1.17;;
1350;SDS011;669;50.206;9.998;2023-07-13T11:49:18;1.93;;;1.13;;
1350;SDS011;669;50.206;9.998;2023-07-13T11:51:51;1.00;;;0.90;;
1350;SDS011;669;50.206;9.998;2023-07-13T11:54:23;4.50;;;1.30;;
1350;SDS011;669;50.206;9.998;2023-07-13T11:56:54;1.10;;;1.00;;
1350;SDS011;669;50.206;9.998;2023-07-13T11:59:23;2.77;;;1.90;;
1350;SDS011;669;50.206;9.998;2023-07-13T12:01:52;1.23;;;0.97;;
1350;SDS011;669;50.206;9.998;2023-07-13T12:04:22;3.50;;;1.30;;
1350;SDS011;669;50.206;9.998;2023-07-13T12:06:56;1.23;;;0.97;;
1350;SDS011;669;50.206;9.998;2023-07-13T12:09:26;1.73;;;1.13;;
1350;SDS011;669;50.206;9.998;2023-07-13T12:11:56;1.13;;;1.03;;
1350;SDS011;669;50.206;9.998;2023-07-13T12:14:28;1.53;;;1.00;;
1350;SDS011;669;50.206;9.998;2023-07-13T12:16:57;2.10;;;1.63;;
1350;SDS011;669;50.206;9.998;2023-07-13T12:19:26;7.90;;;1.53;;
1350;SDS011;669;50.206;9.998;2023-07-13T12:21:58;0.67;;;0.67;;
1350;SDS011;669;50.206;9.998;2023-07-13T12:24:26;4.00;;;1.13;;
1350;SDS011;669;50.206;9.998;2023-07-13T12:26:58;1.40;;;1.30;;
1350;SDS011;669;50.206;9.998;2023-07-13T12:29:28;3.17;;;0.97;;
1350;SDS011;669;50.206;9.998;2023-07-13T12:31:57;2.70;;;1.10;;
1350;SDS011;669;50.206;9.998;2023-07-13T12:34:26;4.10;;;0.83;;
1350;SDS011;669;50.206;9.998;2023-07-13T12:36:54;2.33;;;1.13;;
1350;SDS011;669;50.206;9.998;2023-07-13T12:39:28;0.80;;;0.80;;
1350;SDS011;669;50.206;9.998;2023-07-13T12:42:16;1.63;;;1.53;;
1350;SDS011;669;50.206;9.998;2023-07-13T12:44:50;1.80;;;1.07;;
1350;SDS011;669;50.206;9.998;2023-07-13T12:47:20;2.07;;;1.20;;
1350;SDS011;669;50.206;9.998;2023-07-13T12:49:49;2.10;;;0.97;;
1350;SDS011;669;50.206;9.998;2023-07-13T12:52:21;1.37;;;1.00;;
1350;SDS011;669;50.206;9.998;2023-07-13T12:54:55;1.20;;;0.90;;
1350;SDS011;669;50.206;9.998;2023-07-13T12:57:32;0.73;;;0.73;;
1350;SDS011;669;50.206;9.998;2023-07-13T13:00:13;2.23;;;1.07;;
1350;SDS011;669;50.206;9.998;2023-07-13T13:02:51;2.40;;;1.43;;
1350;SDS011;669;50.206;9.998;2023-07-13T13:05:33;1.40;;;1.10;;
1350;SDS011;669;50.206;9.998;2023-07-13T13:08:03;0.70;;;0.70;;
1350;SDS011;669;50.206;9.998;2023-07-13T13:10:33;0.83;;;0.80;;
1350;SDS011;669;50.206;9.998;2023-07-13T13:13:02;0.70;;;0.70;;
1350;SDS011;669;50.206;9.998;2023-07-13T13:15:30;2.03;;;0.90;;
1350;SDS011;669;50.206;9.998;2023-07-13T13:17:59;2.63;;;1.17;;
1350;SDS011;669;50.206;9.998;2023-07-13T13:20:27;1.40;;;0.70;;
1350;SDS011;669;50.206;9.998;2023-07-13T13:22:55;1.70;;;0.80;;
1350;SDS011;669;50.206;9.998;2023-07-13T13:25:23;1.17;;;0.80;;
1350;SDS011;669;50.206;9.998;2023-07-13T13:27:53;1.33;;;1.03;;
1350;SDS011;669;50.206;9.998;2023-07-13T13:30:22;2.20;;;1.10;;
1350;SDS011;669;50.206;9.998;2023-07-13T13:32:50;3.00;;;1.00;;
1350;SDS011;669;50.206;9.998;2023-07-13T13:35:19;1.90;;;0.90;;
1350;SDS011;669;50.206;9.998;2023-07-13T13:37:48;1.13;;;0.70;;
1350;SDS011;669;50.206;9.998;2023-07-13T13:40:17;0.93;;;0.93;;
1350;SDS011;669;50.206;9.998;2023-07-13T13:42:47;1.70;;;0.83;;
1350;SDS011;669;50.206;9.998;2023-07-13T13:45:17;0.93;;;0.90;;
1350;SDS011;669;50.206;9.998;2023-07-13T13:47:46;1.13;;;0.90;;
1350;SDS011;669;50.206;9.998;2023-07-13T13:50:17;1.23;;;1.13;;
1350;SDS011;669;50.206;9.998;2023-07-13T13:52:46;1.43;;;1.33;;
1350;SDS011;669;50.206;9.998;2023-07-13T13:55:14;1.73;;;1.07;;
1350;SDS011;669;50.206;9.998;2023-07-13T13:57:45;4.83;;;1.00;;
1350;SDS011;669;50.206;9.998;2023-07-13T14:00:13;1.00;;;0.90;;
1350;SDS011;669;50.206;9.998;2023-07-13T14:02:45;1.83;;;1.40;;
1350;SDS011;669;50.206;9.998;2023-07-13T14:05:22;1.17;;;1.00;;
1350;SDS011;669;50.206;9.998;2023-07-13T14:07:52;4.27;;;1.83;;
1350;SDS011;669;50.206;9.998;2023-07-13T14:10:20;1.07;;;0.97;;
1350;SDS011;669;50.206;9.998;2023-07-13T14:12:50;2.87;;;1.20;;
1350;SDS011;669;50.206;9.998;2023-07-13T14:15:21;1.93;;;0.87;;
1350;SDS011;669;50.206;9.998;2023-07-13T14:17:51;4.53;;;1.00;;
1350;SDS011;669;50.206;9.998;2023-07-13T14:20:21;1.60;;;1.07;;
1350;SDS011;669;50.206;9.998;2023-07-13T14:22:50;1.20;;;1.10;;
1350;SDS011;669;50.206;9.998;2023-07-13T14:25:19;2.00;;;1.27;;
1350;SDS011;669;50.206;9.998;2023-07-13T14:27:49;2.20;;;1.00;;
1350;SDS011;669;50.206;9.998;2023-07-13T14:30:22;0.83;;;0.83;;
1350;SDS011;669;50.206;9.998;2023-07-13T14:32:51;4.40;;;1.50;;
1350;SDS011;669;50.206;9.998;2023-07-13T14:35:20;1.13;;;1.00;;
1350;SDS011;669;50.206;9.998;2023-07-13T14:37:50;1.90;;;1.20;;
1350;SDS011;669;50.206;9.998;2023-07-13T14:40:19;1.57;;;1.00;;
1350;SDS011;669;50.206;9.998;2023-07-13T14:42:52;3.03;;;1.37;;
1350;SDS011;669;50.206;9.998;2023-07-13T14:45:20;2.17;;;1.27;;
1350;SDS011;669;50.206;9.998;2023-07-13T14:47:48;1.07;;;0.97;;
1350;SDS011;669;50.206;9.998;2023-07-13T14:50:19;0.87;;;0.87;;
1350;SDS011;669;50.206;9.998;2023-07-13T14:52:48;4.03;;;1.13;;
1350;SDS011;669;50.206;9.998;2023-07-13T14:55:17;1.33;;;1.23;;
1350;SDS011;669;50.206;9.998;2023-07-13T14:57:46;2.00;;;1.20;;
1350;SDS011;669;50.206;9.998;2023-07-13T15:00:14;1.17;;;1.07;;
1350;SDS011;669;50.206;9.998;2023-07-13T15:02:44;2.30;;;1.20;;
1350;SDS011;669;50.206;9.998;2023-07-13T15:05:14;2.20;;;1.30;;
1350;SDS011;669;50.206;9.998;2023-07-13T15:07:47;1.70;;;1.00;;
1350;SDS011;669;50.206;9.998;2023-07-13T15:10:16;1.33;;;1.10;;
1350;SDS011;669;50.206;9.998;2023-07-13T15:12:46;6.43;;;1.30;;
1350;SDS011;669;50.206;9.998;2023-07-13T15:15:14;3.17;;;1.50;;
1350;SDS011;669;50.206;9.998;2023-07-13T15:17:43;1.30;;;1.20;;
1350;SDS011;669;50.206;9.998;2023-07-13T15:20:15;2.97;;;1.63;;
1350;SDS011;669;50.206;9.998;2023-07-13T15:22:48;1.13;;;1.00;;
1350;SDS011;669;50.206;9.998;2023-07-13T15:25:16;1.07;;;1.03;;
1350;SDS011;669;50.206;9.998;2023-07-13T15:27:46;2.10;;;1.10;;
1350;SDS011;669;50.206;9.998;2023-07-13T15:30:14;3.80;;;1.47;;
1350;SDS011;669;50.206;9.998;2023-07-13T15:32:42;1.47;;;1.40;;
1350;SDS011;669;50.206;9.998;2023-07-13T15:35:15;2.07;;;1.37;;
1350;SDS011;669;50.206;9.998;2023-07-13T15:37:43;1.90;;;1.70;;
1350;SDS011;669;50.206;9.998;2023-07-13T15:40:14;3.13;;;1.40;;
1350;SDS011;669;50.206;9.998;2023-07-13T15:42:43;1.07;;;1.00;;
1350;SDS011;669;50.206;9.998;2023-07-13T15:45:16;3.37;;;1.70;;
1350;SDS011;669;50.206;9.998;2023-07-13T15:47:45;7.10;;;1.30;;
1350;SDS011;669;50.206;9.998;2023-07-13T15:50:14;2.40;;;1.33;;
1350;SDS011;669;50.206;9.998;2023-07-13T15:52:47;1.90;;;1.20;;